This is the latest recevied weather packets stored in our database for station/object KO6HRZ. If no packets are shown the sender has not sent any weather packets the latest 10 day(s).
| Time | Temp. | Humidity | Pressure | Rain* | Wind** | Luminosity | Snow |
|---|---|---|---|---|---|---|---|
| 1788560266 | 27.22° C | 42% | 1011.9 hPa | 0 mm | - | 627 W/m² | - |
| 1788559662 | 27.78° C | 41% | 1011.9 hPa | 0 mm | - | 642 W/m² | - |
| 1788559057 | 27.22° C | 42% | 1011.9 hPa | 0 mm | - | 656 W/m² | - |
| 1788558453 | 27.78° C | 42% | 1012 hPa | 0 mm | - | 674 W/m² | - |
| 1788557853 | 26.67° C | 48% | 1011.8 hPa | 0 mm | - | 738 W/m² | - |
| 1788557250 | 25.56° C | 47% | 1012.1 hPa | 0 mm | - | 725 W/m² | - |
| 1788556650 | 26.11° C | 47% | 1012 hPa | 0 mm | - | 234 W/m² | - |
| 1788556046 | 27.22° C | 45% | 1011.8 hPa | 0 mm | - | 191 W/m² | - |
| 1788555443 | 26.67° C | 45% | 1011.9 hPa | 0 mm | - | 747 W/m² | - |
| 1788554844 | 24.44° C | 51% | 1011.9 hPa | 0 mm | - | 244 W/m² | - |
| 1788554239 | 25° C | 52% | 1012 hPa | 0 mm | - | 265 W/m² | - |
| 1788553637 | 27.22° C | 47% | 1011.9 hPa | 0 mm | - | 182 W/m² | - |
| 1788553062 | 26.11° C | 47% | 1012.2 hPa | 0 mm | - | 796 W/m² | - |
| 1788552434 | 26.67° C | 47% | 1012.1 hPa | 0 mm | - | 831 W/m² | - |
| 1788551834 | 25.56° C | 48% | 1012.2 hPa | 0 mm | - | 784 W/m² | - |
| 1788551233 | 26.11° C | 49% | 1012.3 hPa | 0 mm | - | 746 W/m² | - |
| 1788550628 | 25.56° C | 48% | 1012.4 hPa | 0 mm | - | 751 W/m² | - |
| 1788550025 | 25° C | 52% | 1012.6 hPa | 0 mm | - | 159 W/m² | - |
| 1788549422 | 24.44° C | 56% | 1012.5 hPa | 0 mm | - | 734 W/m² | - |
| 1788548820 | 24.44° C | 56% | 1012.4 hPa | 0 mm | - | 682 W/m² | - |
| 1788548219 | 22.78° C | 59% | 1012.8 hPa | 0 mm | - | 701 W/m² | - |
| 1788547617 | 22.78° C | 60% | 1012.8 hPa | 0 mm | - | 709 W/m² | - |
| 1788547015 | 21.67° C | 63% | 1012.9 hPa | 0 mm | - | 695 W/m² | - |
| 1788546410 | 22.22° C | 62% | 1012.7 hPa | 0 mm | - | 225 W/m² | - |
| 1788545807 | 23.33° C | 60% | 1012.6 hPa | 0 mm | - | 692 W/m² | - |
* Rain latest hour (hover to see other rain measurements)
** Current wind speed in m/s (hover to see current wind gust speed)